Time;durP1;ratioP1;P1;durP2;ratioP2;P2;SDS_P1;SDS_P2;PMS_P1;PMS_P2;Temp;Humidity;BMP_temperature;BMP_pressure;BME280_temperature;BME280_humidity;BME280_pressure;Samples;Min_cycle;Max_cycle;Signal;HPM_P1;HPM_P2
2022/02/25 00:00:12;;;;;;;0.00;0.00;;;;;;;2.07;77.17;100726.97;6186355;23;20058;-70
2022/02/25 00:02:38;;;;;;;0.00;0.00;;;;;;;2.06;77.25;100736.09;6185152;23;20022;-70
2022/02/25 00:05:04;;;;;;;0.00;0.00;;;;;;;2.07;76.80;100733.19;6213547;23;20008;-70
2022/02/25 00:07:30;;;;;;;0.00;0.00;;;;;;;2.09;77.32;100741.91;6183804;23;20373;-71
2022/02/25 00:09:55;;;;;;;0.00;0.00;;;;;;;2.11;77.19;100738.19;6185772;23;20048;-70
2022/02/25 00:12:21;;;;;;;0.00;0.00;;;;;;;2.12;77.26;100745.22;6213198;23;20054;-69
2022/02/25 00:14:46;;;;;;;0.00;0.00;;;;;;;2.09;77.93;100741.09;6209260;23;20016;-70
2022/02/25 00:17:12;;;;;;;0.00;0.00;;;;;;;2.10;77.48;100737.34;6163605;23;20011;-69
2022/02/25 00:19:37;;;;;;;0.00;0.00;;;;;;;2.17;77.67;100753.56;6186822;23;20005;-69
2022/02/25 00:22:03;;;;;;;0.00;0.00;;;;;;;2.17;77.95;100754.38;6216016;23;20015;-69
2022/02/25 00:24:28;;;;;;;0.00;0.00;;;;;;;2.20;77.71;100764.78;6216324;23;20022;-68
2022/02/25 00:26:54;;;;;;;0.00;0.00;;;;;;;2.20;78.12;100759.38;6213904;23;20004;-70
2022/02/25 00:29:19;;;;;;;0.00;0.00;;;;;;;2.23;78.11;100761.69;6163030;23;20009;-70
2022/02/25 00:31:45;;;;;;;0.00;0.00;;;;;;;2.23;78.15;100756.28;6185767;23;20005;-68
2022/02/25 00:34:10;;;;;;;0.00;0.00;;;;;;;2.26;77.63;100763.97;6214691;23;20008;-69
2022/02/25 00:36:36;;;;;;;0.00;0.00;;;;;;;2.24;77.75;100752.53;6214340;23;20011;-70
2022/02/25 00:39:02;;;;;;;0.00;0.00;;;;;;;2.25;78.37;100762.31;6213668;23;20013;-71
2022/02/25 00:41:27;;;;;;;0.00;0.00;;;;;;;2.29;78.43;100762.72;6187733;23;20348;-69
2022/02/25 00:43:53;;;;;;;0.00;0.00;;;;;;;2.25;78.90;100766.88;6187910;23;20059;-70
2022/02/25 00:46:18;;;;;;;0.00;0.00;;;;;;;2.24;78.79;100771.44;6213947;23;20342;-70
2022/02/25 00:48:44;;;;;;;0.00;0.00;;;;;;;2.30;78.98;100780.59;6211293;23;20009;-71
2022/02/25 00:51:09;;;;;;;0.00;0.00;;;;;;;2.35;78.99;100761.94;6214549;23;20336;-70
2022/02/25 00:53:35;;;;;;;0.00;0.00;;;;;;;2.41;78.79;100765.66;6213653;23;20004;-70
2022/02/25 00:56:00;;;;;;;0.00;0.00;;;;;;;2.44;78.30;100754.47;6188367;23;20333;-71
2022/02/25 00:58:26;;;;;;;1.17;1.08;;;;;;;2.46;78.28;100759.69;6189210;23;20865;-69
2022/02/25 01:00:51;;;;;;;0.00;0.00;;;;;;;2.44;78.31;100770.69;6186471;23;20015;-69
2022/02/25 01:03:17;;;;;;;0.00;0.00;;;;;;;2.42;78.59;100778.97;6215003;23;20020;-70
2022/02/25 01:05:42;;;;;;;0.00;0.00;;;;;;;2.41;78.83;100785.41;6187830;23;20313;-69
2022/02/25 01:08:08;;;;;;;0.00;0.00;;;;;;;2.42;78.63;100791.63;6213690;23;20044;-70
2022/02/25 01:10:35;;;;;;;0.00;0.00;;;;;;;2.47;78.40;100797.25;6189026;23;20398;-69
2022/02/25 01:13:02;;;;;;;0.00;0.00;;;;;;;2.47;78.40;100797.25;6213337;23;20008;-70
2022/02/25 01:15:28;;;;;;;0.00;0.00;;;;;;;2.46;77.79;100797.47;6189625;23;20020;-69
2022/02/25 01:17:57;;;;;;;0.00;0.00;;;;;;;2.47;78.46;100802.66;6185165;23;20009;-69
2022/02/25 01:20:23;;;;;;;0.00;0.00;;;;;;;2.44;78.32;100803.06;6188313;23;20012;-70
2022/02/25 01:22:48;;;;;;;0.22;0.22;;;;;;;2.46;78.30;100800.16;6214224;23;20024;-69
2022/02/25 01:25:15;;;;;;;0.00;0.00;;;;;;;2.50;77.97;100798.69;6215056;23;20684;-69
2022/02/25 01:27:41;;;;;;;0.00;0.00;;;;;;;2.56;77.79;100797.91;6212664;23;20103;-68
2022/02/25 01:30:08;;;;;;;0.00;0.00;;;;;;;2.61;77.42;100803.50;6213843;23;20031;-69
2022/02/25 01:32:34;;;;;;;0.00;0.00;;;;;;;2.60;77.46;100810.78;6213973;23;20000;-69
2022/02/25 01:35:00;;;;;;;0.00;0.00;;;;;;;2.59;77.35;100811.81;6211879;23;20030;-69
2022/02/25 01:37:26;;;;;;;0.00;0.00;;;;;;;2.62;77.36;100816.81;6214279;23;20008;-69
2022/02/25 01:39:52;;;;;;;0.00;0.00;;;;;;;2.63;77.53;100806.84;6213286;23;20492;-70
2022/02/25 01:42:18;;;;;;;0.00;0.00;;;;;;;2.64;76.94;100811.19;6212057;23;20502;-69
2022/02/25 01:44:44;;;;;;;0.00;0.00;;;;;;;2.66;76.85;100816.41;6186989;23;20431;-70
2022/02/25 01:47:12;;;;;;;0.00;0.00;;;;;;;2.65;77.19;100820.97;6214781;23;20084;-70
2022/02/25 01:49:37;;;;;;;0.70;0.30;;;;;;;2.66;77.18;100827.19;6163377;23;20095;-70
2022/02/25 01:52:10;;;;;;;0.00;0.00;;;;;;;2.72;77.17;100831.81;6215102;23;20017;-70
2022/02/25 01:54:36;;;;;;;0.00;0.00;;;;;;;2.72;77.00;100834.50;6215376;23;20004;-70
2022/02/25 01:57:02;;;;;;;0.00;0.00;;;;;;;2.71;77.11;100830.13;6214657;23;20009;-68
2022/02/25 01:59:32;;;;;;;0.00;0.00;;;;;;;2.72;76.95;100831.81;6213498;23;20004;-68
2022/02/25 02:01:58;;;;;;;0.52;0.52;;;;;;;2.70;76.87;100844.66;6188523;23;20359;-69
2022/02/25 02:04:25;;;;;;;0.00;0.00;;;;;;;2.69;76.87;100848.44;6212638;23;20093;-69
2022/02/25 02:06:51;;;;;;;0.00;0.00;;;;;;;2.66;76.74;100855.06;6213451;23;20039;-69
2022/02/25 02:09:17;;;;;;;0.03;0.03;;;;;;;2.66;77.30;100854.22;6186481;23;20028;-69
2022/02/25 02:11:46;;;;;;;0.00;0.00;;;;;;;2.67;77.24;100866.69;6213437;23;20039;-70
2022/02/25 02:14:17;;;;;;;0.00;0.00;;;;;;;2.65;77.51;100868.75;6217662;22;20339;-68
2022/02/25 02:16:45;;;;;;;0.00;0.00;;;;;;;2.68;77.19;100873.75;6242414;22;20098;-70
2022/02/25 02:19:10;;;;;;;0.00;0.00;;;;;;;2.70;77.42;100879.78;6244030;22;20079;-70
2022/02/25 02:21:50;;;;;;;0.00;0.00;;;;;;;2.73;77.27;100879.38;6236433;23;20442;-71
2022/02/25 02:24:16;;;;;;;0.00;0.00;;;;;;;2.79;77.08;100881.28;6244843;22;20304;-72
2022/02/25 02:26:43;;;;;;;0.00;0.00;;;;;;;2.83;76.70;100881.69;6244799;22;20011;-70
2022/02/25 02:29:10;;;;;;;0.00;0.00;;;;;;;2.83;77.08;100887.91;6242306;22;20008;-71
2022/02/25 02:31:36;;;;;;;0.00;0.00;;;;;;;2.90;77.14;100904.97;6243254;23;20051;-72
2022/02/25 02:34:03;;;;;;;0.00;0.00;;;;;;;2.92;76.68;100919.13;6245252;22;20008;-71
2022/02/25 02:36:29;;;;;;;0.00;0.00;;;;;;;2.99;76.77;100919.13;6244043;23;20445;-71
2022/02/25 02:38:54;;;;;;;0.00;0.00;;;;;;;3.01;76.91;100918.94;6244428;23;20008;-70
2022/02/25 02:41:23;;;;;;;0.65;0.65;;;;;;;2.97;76.86;100927.44;6243384;22;20355;-71
2022/02/25 02:43:49;;;;;;;0.00;0.00;;;;;;;2.91;76.90;100939.06;6245201;22;20756;-71
2022/02/25 02:46:14;;;;;;;0.00;0.00;;;;;;;2.92;76.83;100924.53;6243584;22;20019;-72
2022/02/25 02:48:42;;;;;;;0.00;0.00;;;;;;;2.91;77.10;100933.66;6244606;22;20014;-70
2022/02/25 02:51:09;;;;;;;0.00;0.00;;;;;;;2.84;77.42;100927.41;6244047;22;20023;-71
2022/02/25 02:53:34;;;;;;;0.00;0.00;;;;;;;2.86;77.76;100927.19;6243590;22;20008;-71
2022/02/25 02:56:01;;;;;;;0.00;0.00;;;;;;;2.84;77.63;100927.41;6242187;23;20035;-71
2022/02/25 02:58:26;;;;;;;0.00;0.00;;;;;;;2.84;77.53;100927.41;6245978;23;20008;-71
2022/02/25 03:00:53;;;;;;;0.00;0.00;;;;;;;2.85;77.60;100939.03;6248128;22;20446;-71
2022/02/25 03:03:19;;;;;;;0.00;0.00;;;;;;;2.84;77.71;100940.09;6244661;22;20369;-71
2022/02/25 03:05:46;;;;;;;0.00;0.00;;;;;;;2.84;77.48;100938.22;6243279;23;20385;-71
2022/02/25 03:08:14;;;;;;;0.00;0.00;;;;;;;2.86;77.45;100941.56;6244564;22;20035;-71
2022/02/25 03:10:41;;;;;;;0.00;0.00;;;;;;;2.84;77.52;100938.22;6245471;22;20014;-71
2022/02/25 03:13:07;;;;;;;0.00;0.00;;;;;;;2.83;77.66;100944.63;6245811;22;20008;-72
2022/02/25 03:15:33;;;;;;;0.00;0.00;;;;;;;2.83;77.60;100935.72;6243011;23;20094;-71
2022/02/25 03:17:59;;;;;;;0.00;0.00;;;;;;;2.83;77.58;100939.22;6241756;23;20339;-72
2022/02/25 03:20:25;;;;;;;0.00;0.00;;;;;;;2.80;77.61;100931.53;6247196;22;20011;-70
2022/02/25 03:22:52;;;;;;;0.00;0.00;;;;;;;2.82;77.36;100940.28;6245770;22;20449;-71
2022/02/25 03:25:18;;;;;;;0.00;0.00;;;;;;;2.78;77.46;100939.03;6242656;23;20012;-72
2022/02/25 03:27:44;;;;;;;0.00;0.00;;;;;;;2.77;77.48;100954.41;6245648;22;20011;-70
2022/02/25 03:30:10;;;;;;;0.00;0.00;;;;;;;2.73;77.27;100947.75;6244779;22;20334;-71
2022/02/25 03:32:37;;;;;;;0.00;0.00;;;;;;;2.70;77.29;100953.53;6246145;22;20035;-71
2022/02/25 03:35:03;;;;;;;0.00;0.00;;;;;;;2.64;77.20;100948.09;6242633;23;20008;-69
2022/02/25 03:37:29;;;;;;;0.00;0.00;;;;;;;2.62;77.62;100954.53;6242955;23;20315;-69
2022/02/25 03:39:56;;;;;;;0.00;0.00;;;;;;;2.60;77.24;100956.59;6243052;23;20423;-70
2022/02/25 03:42:31;;;;;;;0.00;0.00;;;;;;;2.60;77.09;100958.47;6245413;22;20027;-71
2022/02/25 03:44:56;;;;;;;0.00;0.00;;;;;;;2.61;77.63;100979.88;6243727;22;20053;-71
2022/02/25 03:47:22;;;;;;;0.00;0.00;;;;;;;2.61;77.58;100982.59;6243677;22;20080;-71
2022/02/25 03:49:47;;;;;;;0.00;0.00;;;;;;;2.58;77.91;100982.97;6245115;23;20008;-71
2022/02/25 03:52:13;;;;;;;0.00;0.00;;;;;;;2.57;77.84;100992.13;6243769;23;20015;-70
2022/02/25 03:54:38;;;;;;;0.00;0.00;;;;;;;2.61;78.19;101004.19;6244245;22;20031;-70
2022/02/25 03:57:04;;;;;;;0.00;0.00;;;;;;;2.62;78.15;101000.44;6244780;22;20015;-71
2022/02/25 03:59:29;;;;;;;0.00;0.00;;;;;;;2.66;78.21;101005.44;6245057;22;20038;-71
2022/02/25 04:01:55;;;;;;;0.00;0.00;;;;;;;2.64;78.55;101008.34;6244938;22;20008;-70
2022/02/25 04:04:27;;;;;;;0.00;0.00;;;;;;;2.65;78.70;101020.00;6243051;23;20034;-71
2022/02/25 04:06:53;;;;;;;0.00;0.00;;;;;;;2.67;78.57;101028.72;6246879;22;20004;-71
2022/02/25 04:09:19;;;;;;;0.00;0.00;;;;;;;2.65;78.06;101034.31;6245417;22;19996;-70
2022/02/25 04:11:50;;;;;;;0.00;0.00;;;;;;;2.65;78.55;101041.59;6245424;22;20011;-70
2022/02/25 04:14:18;;;;;;;0.00;0.00;;;;;;;2.66;78.74;101037.84;6242614;22;20014;-70
2022/02/25 04:16:45;;;;;;;0.00;0.00;;;;;;;2.64;78.90;101032.63;6244597;22;20015;-70
2022/02/25 04:19:11;;;;;;;0.00;0.00;;;;;;;2.67;79.41;101044.91;6244118;22;20015;-68
2022/02/25 04:21:37;;;;;;;0.00;0.00;;;;;;;2.66;79.80;101043.25;6241238;23;20324;-69
2022/02/25 04:24:03;;;;;;;0.00;0.00;;;;;;;2.68;80.15;101035.78;6245182;22;20104;-71
2022/02/25 04:26:28;;;;;;;0.00;0.00;;;;;;;2.70;80.25;101044.50;6241268;22;20065;-70
2022/02/25 04:28:54;;;;;;;0.00;0.00;;;;;;;2.75;80.50;101042.06;6244965;23;20012;-69
2022/02/25 04:31:19;;;;;;;0.00;0.00;;;;;;;2.73;81.03;101050.38;6243147;23;20418;-68
2022/02/25 04:33:45;;;;;;;0.00;0.00;;;;;;;2.72;81.74;101053.28;6241567;23;20075;-69
2022/02/25 04:36:10;;;;;;;0.00;0.00;;;;;;;2.76;81.64;101054.50;6245814;22;20004;-68
2022/02/25 04:38:36;;;;;;;0.00;0.00;;;;;;;2.84;81.85;101053.53;6243952;23;20004;-71
2022/02/25 04:41:02;;;;;;;0.00;0.00;;;;;;;2.87;81.94;101045.84;6244935;22;20007;-70
2022/02/25 04:43:31;;;;;;;0.00;0.00;;;;;;;2.92;81.55;101050.66;6244329;22;20363;-68
2022/02/25 04:45:58;;;;;;;0.00;0.00;;;;;;;3.02;81.48;101058.41;6243553;22;20026;-68
2022/02/25 04:48:25;;;;;;;0.00;0.00;;;;;;;3.06;81.34;101054.28;6243433;23;20434;-70
2022/02/25 04:50:51;;;;;;;0.00;0.00;;;;;;;3.07;81.14;101066.75;6242962;23;20334;-69
2022/02/25 04:53:17;;;;;;;0.00;0.00;;;;;;;3.09;81.07;101070.09;6244188;23;20007;-70
2022/02/25 04:55:46;;;;;;;0.00;0.00;;;;;;;3.12;81.08;101067.81;6243634;22;20062;-69
2022/02/25 04:58:16;;;;;;;0.60;0.60;;;;;;;3.17;80.90;101072.63;6243683;23;20303;-70
2022/02/25 05:00:43;;;;;;;0.00;0.00;;;;;;;3.14;80.62;101081.13;6241976;23;20051;-70
2022/02/25 05:03:09;;;;;;;0.00;0.00;;;;;;;3.12;80.92;101080.50;6243985;23;20015;-70
2022/02/25 05:05:35;;;;;;;0.00;0.00;;;;;;;3.16;80.44;101076.34;6214276;23;20004;-70
2022/02/25 05:08:01;;;;;;;0.00;0.00;;;;;;;3.14;80.54;101078.44;6243048;23;20039;-71
2022/02/25 05:10:27;;;;;;;0.00;0.00;;;;;;;3.13;80.78;101082.16;6248032;22;20004;-71
2022/02/25 05:12:53;;;;;;;0.00;0.00;;;;;;;3.11;80.87;101078.81;6243034;23;20083;-69
2022/02/25 05:20:49;;;;;;;0.43;0.43;;;;;;;3.04;81.39;101083.34;6198764;23;20016;-72
2022/02/25 05:23:15;;;;;;;0.00;0.00;;;;;;;3.04;81.45;101088.75;6246657;22;20011;-69
2022/02/25 05:25:41;;;;;;;0.00;0.00;;;;;;;3.05;82.10;101079.63;6244839;23;20043;-71
2022/02/25 05:28:07;;;;;;;7.32;2.72;;;;;;;3.09;81.39;101097.09;6246187;22;20071;-70
2022/02/25 05:30:33;;;;;;;0.00;0.00;;;;;;;3.06;81.35;101102.91;6244279;23;20004;-71
2022/02/25 05:32:59;;;;;;;0.28;0.28;;;;;;;3.08;81.60;101106.25;6247201;22;20427;-71
2022/02/25 05:35:25;;;;;;;0.00;0.00;;;;;;;3.10;81.55;101094.19;6245489;22;20058;-71
2022/02/25 05:37:51;;;;;;;0.00;0.00;;;;;;;3.13;81.63;101104.63;6248544;23;20438;-70
2022/02/25 05:40:19;;;;;;;0.00;0.00;;;;;;;3.16;81.21;101118.78;6243902;22;20385;-70
2022/02/25 05:42:45;;;;;;;2.53;2.25;;;;;;;3.14;81.14;101110.88;6244900;23;20339;-71
2022/02/25 05:45:11;;;;;;;3.20;1.17;;;;;;;3.16;81.38;101116.91;6244728;22;20007;-70
2022/02/25 05:47:36;;;;;;;0.00;0.00;;;;;;;3.20;80.64;101120.88;6244876;22;20023;-71
2022/02/25 05:50:05;;;;;;;0.00;0.00;;;;;;;3.16;80.75;101119.59;6245577;22;20007;-68
2022/02/25 05:52:30;;;;;;;0.00;0.00;;;;;;;3.17;81.16;101125.81;6245785;22;20007;-70
2022/02/25 05:54:56;;;;;;;0.57;0.57;;;;;;;3.17;80.87;101132.09;6241881;23;20008;-71
2022/02/25 05:57:21;;;;;;;0.00;0.00;;;;;;;3.19;81.33;101132.72;6242851;23;20095;-70
2022/02/25 05:59:47;;;;;;;8.98;1.45;;;;;;;3.24;80.84;101138.38;6244438;23;20011;-70
2022/02/25 06:02:12;;;;;;;0.00;0.00;;;;;;;3.19;80.88;101138.13;6241855;23;20063;-71
2022/02/25 06:04:38;;;;;;;3.50;0.28;;;;;;;3.21;80.65;101144.16;6246645;22;20036;-71
2022/02/25 06:07:03;;;;;;;0.00;0.00;;;;;;;3.20;80.78;101147.06;6243036;23;20154;-70
2022/02/25 06:09:29;;;;;;;0.00;0.00;;;;;;;3.19;80.34;101146.22;6244597;23;20019;-69
2022/02/25 06:11:54;;;;;;;0.00;0.00;;;;;;;3.19;80.38;101150.81;6247871;22;20054;-69
2022/02/25 06:14:20;;;;;;;0.00;0.00;;;;;;;3.16;80.53;101146.63;6242820;23;20020;-72
2022/02/25 06:16:45;;;;;;;0.00;0.00;;;;;;;3.15;80.54;101153.06;6247829;22;20020;-72
2022/02/25 06:19:11;;;;;;;0.00;0.00;;;;;;;3.13;80.29;101152.44;6245030;22;20146;-71
2022/02/25 06:21:36;;;;;;;0.00;0.00;;;;;;;3.06;80.46;101157.78;6219178;23;20039;-71
2022/02/25 06:24:02;;;;;;;0.00;0.00;;;;;;;3.05;80.65;101155.28;6245244;23;20008;-71
2022/02/25 06:26:28;;;;;;;0.00;0.00;;;;;;;3.06;80.74;101170.47;6243359;22;20008;-72
2022/02/25 06:28:54;;;;;;;0.00;0.00;;;;;;;3.01;80.72;101160.25;6246802;22;20000;-71
2022/02/25 06:31:19;;;;;;;0.00;0.00;;;;;;;3.03;80.68;101168.16;6247373;23;20453;-71
2022/02/25 06:33:45;;;;;;;0.00;0.00;;;;;;;3.02;80.74;101174.59;6248412;22;20012;-71
2022/02/25 06:36:11;;;;;;;0.00;0.00;;;;;;;2.97;80.51;101173.31;6249897;22;20011;-71
2022/02/25 06:38:37;;;;;;;0.70;0.70;;;;;;;2.95;80.93;101188.91;6249088;22;20222;-71
2022/02/25 06:41:03;;;;;;;0.00;0.00;;;;;;;2.91;80.64;101190.31;6247642;23;20014;-71
2022/02/25 06:43:29;;;;;;;0.00;0.00;;;;;;;2.89;81.20;101195.09;6244786;22;20592;-71
2022/02/25 06:45:54;;;;;;;0.00;0.00;;;;;;;2.87;81.19;101190.91;6243889;23;20008;-71
2022/02/25 06:48:23;;;;;;;0.00;0.00;;;;;;;2.85;81.13;101207.31;6243210;23;20012;-69
2022/02/25 06:50:48;;;;;;;0.00;0.00;;;;;;;2.86;81.37;101206.31;6244819;23;20019;-70
2022/02/25 06:53:14;;;;;;;0.00;0.00;;;;;;;2.85;81.98;101204.63;6245715;22;20060;-70
2022/02/25 06:55:40;;;;;;;0.00;0.00;;;;;;;2.87;81.74;101207.94;6244093;23;20008;-73
2022/02/25 06:58:06;;;;;;;0.00;0.00;;;;;;;2.84;81.82;101208.34;6221605;23;20011;-74
2022/02/25 07:00:38;;;;;;;0.00;0.00;;;;;;;2.78;81.94;101217.25;6248404;22;20061;-73
2022/02/25 07:03:05;;;;;;;0.00;0.00;;;;;;;2.76;82.75;101211.19;6224026;23;20008;-73
2022/02/25 07:05:33;;;;;;;0.00;0.00;;;;;;;2.86;82.57;101222.50;6249056;22;20012;-70
2022/02/25 07:07:58;;;;;;;0.00;0.00;;;;;;;2.85;82.20;101231.63;6245851;23;20035;-71
2022/02/25 07:14:40;;;;;;;;;;;;;;;;;;;;;
2022/02/25 07:17:12;;;;;;;0.00;0.00;;;;;;;2.86;82.31;101227.91;6253836;23;20450;-77
2022/02/25 07:19:50;;;;;;;;;;;;;;;;;;;;;
2022/02/25 07:22:45;;;;;;;;;;;;;;;;;;;;;
2022/02/25 07:25:33;;;;;;;;;;;;;;;;;;;;;
2022/02/25 07:28:21;;;;;;;0.08;0.08;;;;;;;3.16;81.52;101268.25;6253186;23;20724;-76
2022/02/25 07:31:08;;;;;;;;;;;;;;;;;;;;;
2022/02/25 07:33:54;;;;;;;0.00;0.00;;;;;;;3.16;81.07;101281.78;6249812;23;20388;-74
2022/02/25 07:36:24;;;;;;;0.00;0.00;;;;;;;3.25;81.14;101296.81;6252765;23;20095;-72
2022/02/25 07:39:36;;;;;;;0.00;0.00;;;;;;;3.27;80.73;101299.31;6253288;22;20082;-73
2022/02/25 07:41:59;;;;;;;0.00;0.00;;;;;;;3.37;81.16;101307.91;6247642;22;20007;-74
2022/02/25 07:45:06;;;;;;;;;;;;;;;;;;;;;
2022/02/25 07:48:02;;;;;;;;;;;;;;;;;;;;;
2022/02/25 07:50:41;;;;;;;;;;;;;;;;;;;;;
2022/02/25 07:53:07;;;;;;;0.00;0.00;;;;;;;3.77;81.00;101331.72;6251604;23;20031;-73
2022/02/25 07:55:35;;;;;;;0.00;0.00;;;;;;;4.15;79.86;101363.78;6249167;23;20023;-74
2022/02/25 07:58:32;;;;;;;0.00;0.00;;;;;;;4.60;79.70;101357.91;6249897;23;20061;-73
2022/02/25 08:04:47;;;;;;;0.03;0.03;;;;;;;5.54;76.31;101348.03;6171091;22;20339;-74
2022/02/25 08:07:59;;;;;;;;;;;;;;;;;;;;;
2022/02/25 08:10:35;;;;;;;;;;;;;;;;;;;;;
2022/02/25 08:13:27;;;;;;;;;;;;;;;;;;;;;
2022/02/25 08:16:01;;;;;;;0.00;0.00;;;;;;;4.98;73.55;101393.47;6253198;22;20442;-74
2022/02/25 08:18:29;;;;;;;0.00;0.00;;;;;;;5.19;75.41;101384.31;6225818;23;20083;-71
2022/02/25 08:21:25;;;;;;;;;;;;;;;;;;;;;
2022/02/25 08:24:33;;;;;;;0.00;0.00;;;;;;;6.39;72.24;101394.22;6251710;23;20031;-72
2022/02/25 08:27:09;;;;;;;0.00;0.00;;;;;;;7.09;70.24;101393.47;6251411;23;20059;-74
2022/02/25 08:29:35;;;;;;;0.38;0.38;;;;;;;7.54;68.25;101397.16;6248061;23;20100;-72
2022/02/25 08:32:23;;;;;;;0.25;0.25;;;;;;;7.92;66.32;101420.69;6250253;22;20004;-71
2022/02/25 08:35:23;;;;;;;0.00;0.00;;;;;;;8.17;64.57;101405.13;6247482;23;20082;-73
2022/02/25 08:37:48;;;;;;;0.00;0.00;;;;;;;8.62;63.94;101416.81;6224564;23;20087;-72
2022/02/25 08:40:15;;;;;;;0.00;0.00;;;;;;;8.77;63.01;101419.97;6246750;22;20004;-72
2022/02/25 08:42:41;;;;;;;0.00;0.00;;;;;;;8.87;62.24;101427.63;6247295;22;20091;-73
2022/02/25 08:45:10;;;;;;;0.00;0.00;;;;;;;9.09;61.85;101420.56;6248481;22;20000;-72
2022/02/25 08:47:35;;;;;;;0.00;0.00;;;;;;;9.22;61.22;101427.75;6243156;22;20003;-72
2022/02/25 08:50:02;;;;;;;0.45;0.45;;;;;;;9.53;60.60;101433.16;6235353;22;20008;-71
2022/02/25 08:52:30;;;;;;;0.38;0.38;;;;;;;9.69;60.12;101432.47;6219817;23;20004;-72
2022/02/25 08:54:55;;;;;;;0.00;0.00;;;;;;;9.60;58.69;101440.19;6243669;23;20012;-70
2022/02/25 08:57:21;;;;;;;0.00;0.00;;;;;;;9.71;58.97;101445.91;6245905;23;20008;-71
2022/02/25 08:59:46;;;;;;;0.00;0.00;;;;;;;9.85;58.60;101452.81;6244454;23;20011;-72
2022/02/25 09:02:12;;;;;;;10.15;5.07;;;;;;;9.98;57.81;101440.00;6246443;22;20363;-72
2022/02/25 09:04:38;;;;;;;0.52;0.52;;;;;;;10.10;57.39;101449.03;6248825;22;20335;-72
2022/02/25 09:07:04;;;;;;;0.00;0.00;;;;;;;10.43;57.11;101453.09;6246763;22;20004;-71
2022/02/25 09:09:29;;;;;;;0.13;0.13;;;;;;;10.45;56.34;101446.31;6246095;23;20335;-70
2022/02/25 09:11:55;;;;;;;0.00;0.00;;;;;;;10.59;55.75;101446.03;6244386;23;20012;-73
2022/02/25 09:14:20;;;;;;;4.30;1.08;;;;;;;10.93;55.28;101447.00;6247211;22;20000;-74
2022/02/25 09:16:49;;;;;;;2.75;0.98;;;;;;;11.00;54.19;101449.59;6247166;22;20023;-75
2022/02/25 09:19:17;;;;;;;0.00;0.00;;;;;;;11.14;54.11;101441.91;6244711;23;20019;-73
2022/02/25 09:21:43;;;;;;;0.00;0.00;;;;;;;11.18;53.55;101445.84;6244132;23;20004;-72
2022/02/25 09:24:08;;;;;;;1.05;0.08;;;;;;;11.07;53.44;101446.72;6245135;23;20018;-73
2022/02/25 09:26:39;;;;;;;1.20;1.17;;;;;;;11.28;53.38;101454.22;6245293;23;20072;-74
2022/02/25 09:29:08;;;;;;;0.00;0.00;;;;;;;11.64;53.06;101457.63;6249428;22;20075;-72
2022/02/25 09:31:34;;;;;;;0.00;0.00;;;;;;;12.04;52.60;101455.81;6249225;22;20000;-74
2022/02/25 09:33:59;;;;;;;1.33;1.23;;;;;;;12.30;51.54;101470.75;6248324;23;20011;-73
2022/02/25 09:36:25;;;;;;;0.00;0.00;;;;;;;12.60;50.76;101485.13;6248702;23;20014;-73
2022/02/25 09:38:51;;;;;;;0.10;0.10;;;;;;;13.08;49.96;101494.50;6223705;23;20008;-73
2022/02/25 09:41:17;;;;;;;0.70;0.70;;;;;;;13.27;48.73;101500.50;6248652;23;20039;-75
2022/02/25 09:43:44;;;;;;;0.00;0.00;;;;;;;13.65;47.94;101506.13;6244769;23;20016;-72
2022/02/25 09:46:09;;;;;;;1.55;1.45;;;;;;;13.69;46.60;101516.34;6248457;22;20023;-73
2022/02/25 09:48:35;;;;;;;0.00;0.00;;;;;;;13.71;46.44;101513.34;6247658;22;20000;-73
2022/02/25 09:51:00;;;;;;;0.88;0.68;;;;;;;13.81;46.37;101526.34;6246381;22;20615;-74
2022/02/25 09:53:26;;;;;;;0.00;0.00;;;;;;;14.14;46.92;101520.59;6247438;22;20055;-73
2022/02/25 09:55:52;;;;;;;0.00;0.00;;;;;;;14.40;45.87;101523.53;6244197;22;20004;-75
2022/02/25 09:58:17;;;;;;;0.00;0.00;;;;;;;14.58;44.14;101535.19;6248587;22;20012;-75
2022/02/25 10:00:43;;;;;;;0.00;0.00;;;;;;;15.24;45.02;101536.63;6250233;22;20048;-74
2022/02/25 10:03:19;;;;;;;0.00;0.00;;;;;;;15.79;43.22;101540.66;6221502;23;20011;-74
2022/02/25 10:05:46;;;;;;;0.00;0.00;;;;;;;16.25;41.60;101539.00;6248292;22;20378;-73
2022/02/25 10:08:21;;;;;;;0.30;0.30;;;;;;;16.62;40.63;101532.31;6245585;23;20033;-73
2022/02/25 10:10:47;;;;;;;0.00;0.00;;;;;;;16.29;39.72;101540.13;6247135;23;20031;-72
2022/02/25 10:13:14;;;;;;;0.00;0.00;;;;;;;16.14;40.44;101525.22;6247315;23;20000;-73
2022/02/25 10:15:50;;;;;;;0.00;0.00;;;;;;;16.19;40.83;101533.50;6221390;23;20048;-73
2022/02/25 10:18:19;;;;;;;0.00;0.00;;;;;;;16.41;39.22;101543.41;6248032;22;20006;-74
2022/02/25 10:20:47;;;;;;;0.00;0.00;;;;;;;16.00;38.34;101537.91;6246942;23;20015;-74
2022/02/25 10:23:25;;;;;;;0.00;0.00;;;;;;;15.73;39.08;101555.50;6247904;22;20004;-73
2022/02/25 10:25:52;;;;;;;0.00;0.00;;;;;;;15.86;39.78;101551.44;6246344;22;20004;-71
2022/02/25 10:28:33;;;;;;;0.13;0.13;;;;;;;15.94;38.29;101567.41;6248734;22;20430;-72
2022/02/25 10:31:29;;;;;;;0.00;0.00;;;;;;;16.19;38.60;101572.13;6255399;22;20008;-73
2022/02/25 10:34:03;;;;;;;0.00;0.00;;;;;;;17.05;38.98;101568.69;6261057;22;20002;-77
2022/02/25 10:36:45;;;;;;;0.00;0.00;;;;;;;17.50;37.19;101575.13;6261518;22;20482;-71
2022/02/25 10:39:24;;;;;;;0.00;0.00;;;;;;;17.20;35.88;101584.38;6262367;22;20000;-72
2022/02/25 10:42:16;;;;;;;0.00;0.00;;;;;;;17.60;37.39;101580.59;6258069;22;20000;-71
2022/02/25 10:44:43;;;;;;;0.00;0.00;;;;;;;18.09;36.08;101583.63;6245730;23;20008;-72
2022/02/25 10:47:29;;;;;;;;;;;;;;;;;;;;;
2022/02/25 10:50:08;;;;;;;0.00;0.00;;;;;;;18.42;35.19;101579.19;6248605;23;20479;-73
2022/02/25 10:52:46;;;;;;;0.00;0.00;;;;;;;18.54;33.97;101592.63;6244987;23;20020;-73
2022/02/25 10:55:16;;;;;;;0.00;0.00;;;;;;;18.15;33.39;101588.00;6246407;22;20075;-72
2022/02/25 10:57:42;;;;;;;0.30;0.30;;;;;;;18.19;33.45;101610.41;6245289;22;20007;-71
2022/02/25 11:00:11;;;;;;;0.00;0.00;;;;;;;17.86;33.79;101610.88;6244434;22;20327;-71
2022/02/25 11:02:47;;;;;;;0.00;0.00;;;;;;;17.94;34.45;101620.53;6240783;22;20047;-72
2022/02/25 11:05:21;;;;;;;0.00;0.00;;;;;;;18.94;34.12;101623.88;6244694;22;20000;-70
2022/02/25 11:08:08;;;;;;;0.00;0.00;;;;;;;20.02;32.78;101635.56;6244412;22;20000;-72
2022/02/25 11:10:35;;;;;;;4.07;0.60;;;;;;;20.09;30.45;101640.72;6247813;23;20008;-71
2022/02/25 11:13:06;;;;;;;0.00;0.00;;;;;;;20.30;31.52;101642.06;6244443;22;20061;-73
2022/02/25 11:15:35;;;;;;;0.00;0.00;;;;;;;20.72;30.08;101639.41;6246747;22;20024;-72
2022/02/25 11:18:01;;;;;;;0.28;0.28;;;;;;;20.65;29.71;101637.03;6247671;22;20039;-72
2022/02/25 11:20:32;;;;;;;0.00;0.00;;;;;;;20.69;29.98;101637.25;6248736;22;20008;-73
2022/02/25 11:23:06;;;;;;;0.30;0.30;;;;;;;21.15;29.55;101627.25;6248140;22;20012;-75
2022/02/25 11:25:40;;;;;;;0.00;0.00;;;;;;;22.00;30.00;101630.41;6251274;22;20054;-75
2022/02/25 11:28:07;;;;;;;0.00;0.00;;;;;;;22.86;29.78;101636.13;6200004;23;20304;-74
2022/02/25 11:31:18;;;;;;;0.00;0.00;;;;;;;23.13;27.11;101629.53;6247125;23;20095;-72
2022/02/25 11:33:50;;;;;;;0.00;0.00;;;;;;;23.39;27.31;101632.41;6233667;23;20012;-71
2022/02/25 11:36:16;;;;;;;0.00;0.00;;;;;;;24.13;28.23;101635.47;6247097;22;20008;-72
2022/02/25 11:38:46;;;;;;;0.00;0.00;;;;;;;24.82;26.32;101645.72;6246417;22;20008;-71
2022/02/25 11:41:20;;;;;;;0.00;0.00;;;;;;;25.31;25.85;101644.59;6247524;22;20004;-71
2022/02/25 11:43:47;;;;;;;0.00;0.00;;;;;;;25.51;24.56;101641.03;6245680;23;20030;-70
2022/02/25 11:46:22;;;;;;;0.00;0.00;;;;;;;25.91;25.15;101640.56;6244499;23;20004;-72
2022/02/25 11:48:50;;;;;;;0.00;0.00;;;;;;;26.49;24.37;101648.34;6243574;22;20070;-71
2022/02/25 11:51:40;;;;;;;0.00;0.00;;;;;;;26.89;24.24;101649.75;6243096;23;20058;-69
2022/02/25 11:54:41;;;;;;;;;;;;;;;;;;;;;
2022/02/25 11:57:10;;;;;;;0.00;0.00;;;;;;;27.33;21.70;101652.81;6245008;23;20079;-69
2022/02/25 11:59:38;;;;;;;0.00;0.00;;;;;;;26.93;21.55;101645.88;6246069;22;20011;-71
2022/02/25 12:02:35;;;;;;;0.00;0.00;;;;;;;27.03;22.89;101643.78;6245910;23;20410;-72
2022/02/25 12:05:03;;;;;;;0.00;0.00;;;;;;;26.97;22.36;101660.88;6247692;22;20007;-70
2022/02/25 12:07:57;;;;;;;0.00;0.00;;;;;;;26.89;21.94;101644.13;6246626;22;20031;-70
2022/02/25 12:10:34;;;;;;;0.00;0.00;;;;;;;26.67;21.41;101631.31;6242929;23;20035;-70
2022/02/25 12:13:03;;;;;;;0.00;0.00;;;;;;;25.66;21.28;101641.59;6245543;23;20091;-69